Home > Products > Valid Products > TAF

000
FTUS43 KMQT 042332
TAFSAW
TAF
KSAW 042332Z 0500/0524 02006KT P6SM SCT030
     FM050200 VRB03KT P6SM FEW080
     FM051700 01007KT P6SM SCT070
     FM052300 07007KT P6SM SCT060=



000
FTUS43 KMQT 042332
TAFCMX
TAF
KCMX 042332Z 0500/0524 31006KT P6SM FEW080
     FM052200 08005KT P6SM SCT150=



000
FTUS43 KMQT 041722
TAFCMX
TAF
KCMX 041722Z 0418/0518 32012KT P6SM FEW020 OVC045
     FM042200 33006KT P6SM FEW060=



000
FTUS43 KMQT 041722
TAFSAW
TAF
KSAW 041722Z 0418/0518 05007KT P6SM SCT015 BKN035
      TEMPO 0418/0419 -SHRA BKN015
     FM042100 04007KT P6SM SCT035
     FM050200 VRB03KT P6SM FEW130=



000
FTUS43 KMQT 041722
TAFSAW
TAF
KSAW 041722Z 0418/0518 05007KT P6SM SCT015 BKN035
      TEMPO 0418/0419 -SHRA BKN015
     FM042100 04007KT P6SM SCT035
     FM050200 VRB03KT P6SM FEW130=



000
FTUS43 KMQT 041722
TAFCMX
TAF
KCMX 041722Z 0418/0518 32012KT P6SM FEW020 OVC045
     FM042200 33006KT P6SM FEW060=



000
FTUS43 KMQT 041447 AAA
TAFSAW
TAF AMD
KSAW 041447Z 0415/0512 31005KT P6SM BKN020 OVC030
     FM041800 35007KT P6SM BKN035
     FM042100 36007KT P6SM SCT040
     FM042300 36006KT P6SM SCT090
     FM050900 30003KT P6SM FEW140=



000
FTUS43 KMQT 041443 AAB
TAFCMX
TAF AMD
KCMX 041443Z 0415/0512 32006KT P6SM BKN015 BKN045
     FM041800 32007KT P6SM BKN045
     FM042300 30004KT P6SM SCT090
     FM051100 00000KT P6SM FEW150=



000
FTUS43 KMQT 041443 AAB
TAFCMX
TAF AMD
KCMX 041443Z 0415/0512 32006KT P6SM BKN015 BKN045
     FM041800 32007KT P6SM BKN045
     FM042300 30004KT P6SM SCT090
     FM051100 00000KT P6SM FEW150=



000
FTUS43 KMQT 041306 AAA
TAFCMX
TAF AMD
KCMX 041306Z 0413/0512 32006KT P6SM FEW008 BKN045
     FM041600 32007KT P6SM BKN045
     FM042300 30004KT P6SM SCT090
     FM051100 00000KT P6SM FEW150=



000
FTUS43 KMQT 041306 AAA
TAFCMX
TAF AMD
KCMX 041306Z 0413/0512 32006KT P6SM FEW008 BKN045
     FM041600 32007KT P6SM BKN045
     FM042300 30004KT P6SM SCT090
     FM051100 00000KT P6SM FEW150=



000
FTUS43 KMQT 041120
TAFCMX
TAF
KCMX 041120Z 0412/0512 32006KT P6SM OVC008
     FM041400 33007KT P6SM BKN024
     FM041600 32007KT P6SM BKN040
     FM042300 30004KT P6SM SCT090
     FM051100 00000KT P6SM FEW150=



000
FTUS43 KMQT 041120
TAFCMX
TAF
KCMX 041120Z 0412/0512 32006KT P6SM OVC008
     FM041400 33007KT P6SM BKN024
     FM041600 32007KT P6SM BKN040
     FM042300 30004KT P6SM SCT090
     FM051100 00000KT P6SM FEW150=



000
FTUS43 KMQT 041120
TAFSAW
TAF
KSAW 041120Z 0412/0512 33004KT P6SM OVC040
     FM041500 34006KT P6SM BKN024
     FM041700 35007KT P6SM BKN035
     FM042100 36007KT P6SM SCT040
     FM042300 36006KT P6SM SCT090
     FM050900 30003KT P6SM FEW140=



000
FTUS43 KMQT 040520
TAFCMX
TAF
KCMX 040520Z 0406/0506 31009KT P6SM VCSH BKN040
     FM041200 31009KT P6SM VCSH OVC028
     FM041400 31010KT P6SM BKN035
     FM041700 31010G16KT P6SM SCT060
     FM042300 29007KT P6SM SCT070=



000
FTUS43 KMQT 040520
TAFSAW
TAF
KSAW 040520Z 0406/0506 30005KT P6SM VCSH OVC060
     FM041200 33008KT P6SM VCSH BKN035
     FM041700 36011G16KT P6SM BKN035
     FM042300 01009KT P6SM SCT060
     FM050100 33003KT P6SM FEW150=



000
FTUS43 KMQT 040520
TAFSAW
TAF
KSAW 040520Z 0406/0506 30005KT P6SM VCSH OVC060
     FM041200 33008KT P6SM VCSH BKN035
     FM041700 36011G16KT P6SM BKN035
     FM042300 01009KT P6SM SCT060
     FM050100 33003KT P6SM FEW150=



000
FTUS43 KMQT 040520
TAFCMX
TAF
KCMX 040520Z 0406/0506 31009KT P6SM VCSH BKN040
     FM041200 31009KT P6SM VCSH OVC028
     FM041400 31010KT P6SM BKN035
     FM041700 31010G16KT P6SM SCT060
     FM042300 29007KT P6SM SCT070=



000
FTUS43 KMQT 032338
TAFCMX
TAF
KCMX 032338Z 0400/0424 28010KT P6SM VCSH BKN060
     FM040700 31007KT P6SM BKN040
     FM041600 31010G15KT P6SM BKN045
     FM041900 30011G17KT P6SM SCT060=



000
FTUS43 KMQT 032338
TAFSAW
TAF
KSAW 032338Z 0400/0424 32007KT P6SM SCT050 BKN070
     FM040200 28003KT P6SM VCSH BKN060
     FM040700 31003KT P6SM VCSH BKN035
     FM041400 33008KT P6SM VCSH BKN040
     FM041700 36011G16KT P6SM BKN040
     FM042200 01010G15KT P6SM BKN060=



000
FTUS43 KMQT 031729 CCA
TAFCMX
TAF COR
KCMX 031729Z 0318/0418 28012KT P6SM VCSH SCT030 BKN035
     FM040000 29008KT P6SM BKN035
     FM040300 29006KT P6SM VCSH SCT030 BKN035
     FM040900 32007KT P6SM OVC030
     FM041400 31006KT P6SM OVC035
     FM041700 32009KT P6SM BKN070=



000
FTUS43 KMQT 031727
TAFCMX
TAF
KCMX 031727Z 0318/0418 28012KT P6SM VCSH SCT030 BKN035
     FM040000 29008KT P6SM BKN035
     FM040900 32007KT P6SM OVC030
     FM041400 31006KT P6SM OVC035
     FM041700 32009KT P6SM BKN070=



000
FTUS43 KMQT 031727
TAFSAW
TAF
KSAW 031727Z 0318/0418 32009KT P6SM VCSH BKN040
     FM040000 31005KT P6SM BKN040
     FM040400 31003KT P6SM VCSH OVC035
     FM041000 32004KT P6SM VCSH OVC030
     FM041400 33006KT P6SM VCSH OVC035=



000
FTUS43 KMQT 031540 AAA
TAFCMX
TAF AMD
KCMX 031540Z 0316/0412 29013KT P6SM VCSH BKN035
     FM040100 30009KT P6SM VCSH BKN040=



000
FTUS43 KMQT 031120
TAFSAW
TAF
KSAW 031120Z 0312/0412 30009KT P6SM BKN060
     FM031600 31010G16KT P6SM VCSH BKN040
     FM040100 30004KT P6SM BKN040=



000
FTUS43 KMQT 031120
TAFCMX
TAF
KCMX 031120Z 0312/0412 27010KT P6SM BKN050
     FM031500 29013G20KT P6SM VCSH BKN035
     FM040100 30009KT P6SM VCSH BKN040=



000
FTUS43 KMQT 031120
TAFSAW
TAF
KSAW 031120Z 0312/0412 30009KT P6SM BKN060
     FM031600 31010G16KT P6SM VCSH BKN040
     FM040100 30004KT P6SM BKN040=



000
FTUS43 KMQT 031120
TAFCMX
TAF
KCMX 031120Z 0312/0412 27010KT P6SM BKN050
     FM031500 29013G20KT P6SM VCSH BKN035
     FM040100 30009KT P6SM VCSH BKN040=



000
FTUS43 KMQT 030521
TAFSAW
TAF
KSAW 030521Z 0306/0406 29004KT P6SM SCT080
     FM031200 30009KT P6SM BKN060
     FM031600 31010G16KT P6SM VCSH BKN040
     FM040100 30004KT P6SM BKN040=



000
FTUS43 KMQT 030521
TAFCMX
TAF
KCMX 030521Z 0306/0406 30009KT P6SM BKN070
     FM030900 30010KT P6SM BKN050
     FM031500 29013G20KT P6SM VCSH BKN035
     FM040100 30009KT P6SM VCSH BKN040=



000
FTUS43 KMQT 030521
TAFCMX
TAF
KCMX 030521Z 0306/0406 30009KT P6SM BKN070
     FM030900 30010KT P6SM BKN050
     FM031500 29013G20KT P6SM VCSH BKN035
     FM040100 30009KT P6SM VCSH BKN040=



000
FTUS43 KMQT 030521
TAFSAW
TAF
KSAW 030521Z 0306/0406 29004KT P6SM SCT080
     FM031200 30009KT P6SM BKN060
     FM031600 31010G16KT P6SM VCSH BKN040
     FM040100 30004KT P6SM BKN040=



000
FTUS43 KMQT 022338
TAFSAW
TAF
KSAW 022338Z 0300/0324 02007KT P6SM SCT035 BKN070
     FM030200 30005KT P6SM SCT070
     FM031200 31009KT P6SM BKN060
     FM031600 31010G16KT P6SM VCSH BKN040=



000
FTUS43 KMQT 022338
TAFCMX
TAF
KCMX 022338Z 0300/0324 29011KT P6SM SCT070
     FM030600 31010KT P6SM BKN050
     FM031500 29013G20KT P6SM VCSH BKN035=



000
FTUS43 KMQT 022338
TAFSAW
TAF
KSAW 022338Z 0300/0324 02007KT P6SM SCT035 BKN070
     FM030200 30005KT P6SM SCT070
     FM031200 31009KT P6SM BKN060
     FM031600 31010G16KT P6SM VCSH BKN040=



000
FTUS43 KMQT 022338
TAFCMX
TAF
KCMX 022338Z 0300/0324 29011KT P6SM SCT070
     FM030600 31010KT P6SM BKN050
     FM031500 29013G20KT P6SM VCSH BKN035=



000
FTUS43 KMQT 021732
TAFCMX
TAF
KCMX 021732Z 0218/0318 28014KT P6SM VCSH BKN070
     FM022100 30010KT P6SM SCT070
     FM030600 31007KT P6SM BKN050
     FM031500 30010G20KT P6SM VCSH BKN035=



000
FTUS43 KMQT 021732
TAFSAW
TAF
KSAW 021732Z 0218/0318 25009KT P6SM -SHRA SCT030 BKN040
     FM022000 32007KT P6SM VCSH BKN070
     FM022300 36006KT P6SM SCT070
     FM030200 29005KT P6SM FEW070
     FM031200 31007KT P6SM BKN060
     FM031600 32009KT P6SM VCSH BKN050=



000
FTUS43 KMQT 021732
TAFCMX
TAF
KCMX 021732Z 0218/0318 28014KT P6SM VCSH BKN070
     FM022100 30010KT P6SM SCT070
     FM030600 31007KT P6SM BKN050
     FM031500 30010G20KT P6SM VCSH BKN035=



000
FTUS43 KMQT 021732
TAFSAW
TAF
KSAW 021732Z 0218/0318 25009KT P6SM -SHRA SCT030 BKN040
     FM022000 32007KT P6SM VCSH BKN070
     FM022300 36006KT P6SM SCT070
     FM030200 29005KT P6SM FEW070
     FM031200 31007KT P6SM BKN060
     FM031600 32009KT P6SM VCSH BKN050=



000
FTUS43 KMQT 021534 AAB
TAFSAW
TAF AMD
KSAW 021534Z 0216/0312 23005KT P6SM VCSH SCT010 BKN040
      TEMPO 0216/0217 5SM TSRA BKN010 BKN040CB
     FM021800 01007KT P6SM -SHRA SCT030 BKN040
     FM022200 01006KT P6SM BKN070
     FM030100 33004KT P6SM BKN070=



000
FTUS43 KMQT 021534 AAB
TAFSAW
TAF AMD
KSAW 021534Z 0216/0312 23005KT P6SM VCSH SCT010 BKN040
      TEMPO 0216/0217 5SM TSRA BKN010 BKN040CB
     FM021800 01007KT P6SM -SHRA SCT030 BKN040
     FM022200 01006KT P6SM BKN070
     FM030100 33004KT P6SM BKN070=



000
FTUS43 KMQT 021505 AAA
TAFSAW
TAF AMD
KSAW 021505Z 0215/0312 19005KT P6SM VCSH SCT006 BKN040
      TEMPO 0215/0217 BKN006
     FM021800 01007KT P6SM -SHRA SCT030 BKN040
     FM022200 01006KT P6SM BKN070
     FM030100 33004KT P6SM BKN070=



000
FTUS43 KMQT 021258 AAA
TAFCMX
TAF AMD
KCMX 021258Z 0213/0312 21007KT P6SM -SHRA SCT035 BKN070
     FM021500 30009KT P6SM BKN070
     FM022000 28012KT P6SM SCT070=



000
FTUS43 KMQT 021120
TAFCMX
TAF
KCMX 021120Z 0212/0312 30010KT P6SM -SHRA SCT035 BKN070
     FM022000 28012KT P6SM SCT070=



000
FTUS43 KMQT 021120
TAFSAW
TAF
KSAW 021120Z 0212/0312 VRB03KT P6SM SCT035 OVC060
      TEMPO 0212/0214 32016KT 6SM TSRA BKN035CB
     FM021800 01007KT P6SM -SHRA SCT030 BKN040
     FM022200 01006KT P6SM BKN070
     FM030100 33004KT P6SM BKN070=



000
FTUS43 KMQT 021120
TAFSAW
TAF
KSAW 021120Z 0212/0312 VRB03KT P6SM SCT035 OVC060
      TEMPO 0212/0214 32016KT 6SM TSRA BKN035CB
     FM021800 01007KT P6SM -SHRA SCT030 BKN040
     FM022200 01006KT P6SM BKN070
     FM030100 33004KT P6SM BKN070=



000
FTUS43 KMQT 021120
TAFCMX
TAF
KCMX 021120Z 0212/0312 30010KT P6SM -SHRA SCT035 BKN070
     FM022000 28012KT P6SM SCT070=



000
FTUS43 KMQT 020756 AAA
TAFSAW
TAF AMD
KSAW 020756Z 0208/0306 20005KT P6SM SCT120
     FM021100 23005KT P6SM VCSH BKN090
     FM021400 24005KT 6SM SHRA SCT040 OVC060
     FM021800 01007KT P6SM -SHRA SCT030 BKN040
     FM022200 01006KT P6SM VCSH BKN070
     FM030100 34004KT P6SM BKN070=



000
FTUS43 KMQT 020755 AAA
TAFCMX
TAF AMD
KCMX 020755Z 0208/0306 24006KT P6SM BKN080
     FM021000 27005KT P6SM VCSH BKN080
     FM021300 28007KT P6SM -SHRA BKN060
     FM022000 28012KT P6SM BKN070=



000
FTUS43 KMQT 020520
TAFCMX
TAF
KCMX 020520Z 0206/0306 24006KT P6SM BKN080
     FM020900 27005KT P6SM VCSH BKN080
     FM021300 28007KT P6SM -SHRA BKN060
     FM022000 28012KT P6SM BKN070=



000
FTUS43 KMQT 020520
TAFSAW
TAF
KSAW 020520Z 0206/0306 20005KT P6SM SCT120
     FM021000 23005KT P6SM VCSH BKN090
     FM021400 24005KT 6SM SHRA SCT040 OVC060
     FM021800 01007KT P6SM -SHRA SCT030 BKN040
     FM022200 01006KT P6SM VCSH BKN070
     FM030100 34004KT P6SM BKN070=



    US Dept of Commerce
    National Oceanic and Atmospheric Administration
    National Weather Service
    1325 East West Highway
    Silver Spring, MD 20910
    Page Author: NWS Internet Services Team
Disclaimer
Information Quality
Credits
Glossary
Privacy Policy
Freedom of Information Act (FOIA)
About Us
Career Opportunities